Huvudsida
METAR-TAF:

METAR-TAF

Flygplatser :

Arvidsjaur flygplats

Arvidsjaur, Sverige

latitud: 65-35-25N, longitud: 019-16-55E, höjd: 379 m

Aktuellt väderrapport

Denna rapport gjordes för 27 minuter sedan, klockan 09:20 UTC
Vind 8 kt från nord/nordost, varierande mellan nord och ost/nordost
Temperatur -2°C
Fuktighet 74%
Tryck 1010 hPa
Sikt 10 km eller mer
Spridda moln på en höjd av 1600 ft
Brutna moln på en höjd av 2300 ft
lätt snö,

METAR: ESNX 170920Z 02008KT 350V060 9999 -SN SCT016 BKN023 M02/M06 Q1010

Tid: 11:47 (09:47 UTC)

Väderprognos

Denna rapport gjordes för 1 timme och 17 minuter sedan, klockan 08:30 UTC
Prognos gäller från 17 kl. 09 UTC till 17 kl. 18 UTC
Vind 8 kt från nord/nordost
Sikt 10 km eller mer
Spridda moln på en höjd av 1200 ft
Brutna moln på en höjd av 2000 ft
Sannolikhet 40%
från 17 kl. 09 UTC till 17 kl. 11 UTC
Sikt: 3500 m
Brutna moln på en höjd av 1200 ft
lätt snö,

TAF: ESNX 170830Z 1709/1718 03008KT 9999 SCT012 BKN020 PROB40 1709/1711 3500 -SN BKN012

Aktuella väderrapporter och prognoser från 4000 flygplatser (METAR- och TAF-rapporter).

De tillgängliga stationerna syns som gula och röda prickar på kartan.

För musen över prickarna för att se namnen på stationerna.

Klicka sedan för att få väderrapporter och prognoser.

För att ändra kartan: Klicka på de gröna knapparna med ett svart kors på för att zooma in; den gröna knappen med ett streck på för att zooma ut; eller på de gröna pilarna för angränsande kartor.


METAR-TAF: